Ipoh, Malaysia
Current Conditions -  °F | °C
As of 7:00 AM on Tuesday 21 Oct 2014 (Local Time) from WMKI Reporting Station
Broken Clouds Broken Clouds  
Wind Chill: 77°   Ceiling: 28000
Heat Index: 78°   Visibility: 4mi
Dew Point: 73°   Wind: 6mph
Humidity: 89%   Direction: 20°NNE
Pressure: 29.88"   Gusts: NA
Location:  4.6°N, 101.07°E
Report Text: WMKI 202300Z 02005KT 6000 FEW017CB SCT140 BKN280 25/23 Q1012
Loading
Personal Weather Stations






























Interactive Weather Map
Tropical Storm Tracking
New forecast layout! Learn more

10-Day Weather Forecast

Advertisements
Track Severe Weather on mobile